createdAt,value
2023-01-08T00:00:18.093Z,99055.31
2023-01-08T00:03:04.989Z,99054.77
2023-01-08T00:05:35.939Z,99052.45
2023-01-08T00:08:03.258Z,99057.05
2023-01-08T00:10:38.957Z,99060.77
2023-01-08T00:13:07.419Z,99056.16
2023-01-08T00:15:34.506Z,99054.05
2023-01-08T00:18:02.379Z,99064.65
2023-01-08T00:20:29.283Z,99070.67
2023-01-08T00:22:57.209Z,99067.79
2023-01-08T00:25:24.153Z,99070.88
2023-01-08T00:27:51.175Z,99067.54
2023-01-08T00:30:17.965Z,99067.23
2023-01-08T00:32:46.525Z,99060.94
2023-01-08T00:35:13.407Z,99061.52
2023-01-08T00:37:40.268Z,99063.84
2023-01-08T00:40:07.869Z,99061.13
2023-01-08T00:42:34.710Z,99057.77
2023-01-08T00:45:01.500Z,99060.02
2023-01-08T00:47:28.288Z,99060.59
2023-01-08T00:49:55.125Z,99059.73
2023-01-08T00:52:21.905Z,99055.66
2023-01-08T00:54:49.870Z,99054.84
2023-01-08T00:57:17.981Z,99056.02
2023-01-08T00:59:44.877Z,99053.96
2023-01-08T01:02:11.974Z,99053.35
2023-01-08T01:04:38.966Z,99055.23
2023-01-08T01:07:06.755Z,99053.08
2023-01-08T01:09:33.636Z,99055.36
2023-01-08T01:12:00.384Z,99054.53
2023-01-08T01:14:27.173Z,99049.88
2023-01-08T01:16:53.953Z,99043.41
2023-01-08T01:19:21.471Z,99044.83
2023-01-08T01:21:48.287Z,99042.31
2023-01-08T01:24:15.263Z,99038.55
2023-01-08T01:26:42.322Z,99039.88
2023-01-08T01:29:09.938Z,99035.21
2023-01-08T01:31:36.964Z,99033.94
2023-01-08T01:34:03.920Z,99032.10
2023-01-08T01:36:30.635Z,99031.30
2023-01-08T01:38:58.495Z,99028.38
2023-01-08T01:41:39.744Z,99027.86
2023-01-08T01:44:34.318Z,99026.00
2023-01-08T01:47:12.296Z,99023.71
2023-01-08T01:49:45.685Z,99025.60
2023-01-08T01:52:12.426Z,99023.05
2023-01-08T01:54:41.579Z,99021.38
2023-01-08T01:57:10.050Z,99019.96
2023-01-08T01:59:37.032Z,99018.64
2023-01-08T02:02:04.106Z,99011.96
2023-01-08T02:04:30.853Z,99012.37
2023-01-08T02:07:06.410Z,99009.94
2023-01-08T02:09:47.495Z,99013.45
2023-01-08T02:12:32.265Z,99014.62
2023-01-08T02:15:04.823Z,99015.34
2023-01-08T02:17:40.692Z,99014.45
2023-01-08T02:20:12.271Z,99012.58
2023-01-08T02:23:10.357Z,99011.04
2023-01-08T02:25:55.702Z,99010.64
2023-01-08T02:28:25.782Z,99007.40
2023-01-08T02:30:54.310Z,99004.83
2023-01-08T02:33:23.256Z,99000.25
2023-01-08T02:36:20.938Z,99002.10
2023-01-08T02:39:00.358Z,98997.73
2023-01-08T02:41:39.079Z,98995.09
2023-01-08T02:44:07.674Z,98996.06
2023-01-08T02:46:39.427Z,98996.14
2023-01-08T02:49:12.152Z,98996.48
2023-01-08T02:51:48.198Z,98998.36
2023-01-08T02:54:23.708Z,99001.46
2023-01-08T02:57:01.832Z,99005.80
2023-01-08T02:59:31.103Z,99008.05
2023-01-08T03:01:58.759Z,99007.51
2023-01-08T03:04:28.374Z,99007.61
2023-01-08T03:06:56.339Z,99012.23
2023-01-08T03:09:24.483Z,99012.63
2023-01-08T03:12:09.438Z,99011.58
2023-01-08T03:14:43.618Z,99008.13
2023-01-08T03:17:23.995Z,99007.67
2023-01-08T03:19:57.449Z,99005.64
2023-01-08T03:22:24.378Z,99002.82
2023-01-08T03:24:54.023Z,99006.27
2023-01-08T03:27:25.046Z,99006.09
2023-01-08T03:29:55.375Z,98998.66
2023-01-08T03:32:25.523Z,98994.28
2023-01-08T03:34:55.095Z,98992.61
2023-01-08T03:37:33.993Z,98989.64
2023-01-08T03:40:15.823Z,98989.05
2023-01-08T03:42:43.916Z,98984.96
2023-01-08T03:45:10.902Z,98984.87
2023-01-08T03:47:43.309Z,98985.56
2023-01-08T03:50:15.735Z,98986.29
2023-01-08T03:52:42.672Z,98987.55
2023-01-08T03:55:09.727Z,98987.58
2023-01-08T03:57:36.488Z,98991.37
2023-01-08T04:00:07.101Z,98988.19
2023-01-08T04:02:34.184Z,98987.73
2023-01-08T04:05:02.737Z,98986.84
2023-01-08T04:11:47.708Z,98986.90
2023-01-08T04:22:13.861Z,98995.09
2023-01-08T04:33:02.962Z,99000.27
2023-01-08T04:43:47.464Z,98998.77
2023-01-08T04:50:32.772Z,99000.45
2023-01-08T04:53:42.968Z,99001.89
2023-01-08T05:00:27.931Z,98998.46
2023-01-08T05:03:25.760Z,99004.25
2023-01-08T05:10:10.292Z,99005.33
2023-01-08T05:13:17.598Z,99007.02
2023-01-08T05:20:02.836Z,99006.92
2023-01-08T05:23:09.893Z,99009.56
2023-01-08T05:29:54.803Z,99010.59
2023-01-08T05:40:42.622Z,99012.81
2023-01-08T05:43:58.804Z,99013.90
2023-01-08T05:50:43.388Z,99014.77
2023-01-08T05:53:32.415Z,99013.14
2023-01-08T06:00:17.401Z,99018.90
2023-01-08T06:03:24.323Z,99017.02
2023-01-08T06:10:10.523Z,99023.89
2023-01-08T06:13:17.948Z,99022.20
2023-01-08T06:20:03.135Z,99025.17
2023-01-08T06:30:47.750Z,99035.13
2023-01-08T06:41:38.143Z,99045.63
2023-01-08T06:48:23.048Z,99043.54
2023-01-08T06:51:29.734Z,99053.45
2023-01-08T06:58:15.477Z,99047.56
2023-01-08T07:01:22.829Z,99046.30
2023-01-08T07:08:10.433Z,99042.44
2023-01-08T07:18:54.787Z,99045.90
2023-01-08T07:22:02.790Z,99053.77
2023-01-08T07:28:48.889Z,99040.86
2023-01-08T07:39:34.134Z,99039.64
2023-01-08T07:50:21.645Z,99041.66
2023-01-08T07:57:10.531Z,99037.77
2023-01-08T08:00:17.468Z,99042.23
2023-01-08T08:07:04.519Z,99043.83
2023-01-08T08:09:58.322Z,99037.37
2023-01-08T08:16:44.626Z,99040.02
2023-01-08T08:27:44.283Z,99030.30
2023-01-08T08:34:10.650Z,99031.68
2023-01-08T08:36:37.525Z,99036.87
2023-01-08T08:47:34.481Z,99029.83
2023-01-08T09:02:40.685Z,99017.58
2023-01-08T09:09:26.304Z,99012.63
2023-01-08T09:20:26.824Z,98998.72
2023-01-08T09:31:12.524Z,98984.50
2023-01-08T09:42:22.721Z,98972.77
2023-01-08T09:53:39.439Z,98959.00
2023-01-08T10:00:29.228Z,98955.21
2023-01-08T10:07:21.545Z,98939.59
2023-01-08T10:11:06.281Z,98937.38
2023-01-08T10:26:11.765Z,98922.40
2023-01-08T10:45:34.826Z,98900.73
2023-01-08T10:52:36.768Z,98895.76
2023-01-08T10:55:29.855Z,98893.58
2023-01-08T11:12:47.440Z,98864.48
2023-01-08T11:15:15.536Z,98861.33
2023-01-08T11:17:44.786Z,98860.02
2023-01-08T11:20:22.471Z,98855.80
2023-01-08T11:22:52.064Z,98855.03
2023-01-08T11:25:29.275Z,98849.75
2023-01-08T11:27:59.642Z,98852.27
2023-01-08T11:30:32.467Z,98850.83
2023-01-08T11:33:15.208Z,98846.11
2023-01-08T11:35:48.862Z,98844.16
2023-01-08T11:38:17.600Z,98841.94
2023-01-08T11:41:11.433Z,98838.42
2023-01-08T11:44:25.859Z,98839.95
2023-01-08T11:47:06.844Z,98836.73
2023-01-08T11:49:34.868Z,98831.92
2023-01-08T11:52:08.970Z,98823.15
2023-01-08T11:54:42.904Z,98822.71
2023-01-08T11:57:37.943Z,98822.92
2023-01-08T12:00:44.366Z,98822.52
2023-01-08T12:03:34.248Z,98820.73
2023-01-08T12:06:08.469Z,98815.91
2023-01-08T12:08:45.521Z,98816.98
2023-01-08T12:11:27.826Z,98813.20
2023-01-08T12:14:24.032Z,98812.46
2023-01-08T12:17:30.495Z,98807.22
2023-01-08T12:20:21.382Z,98804.61
2023-01-08T12:23:07.898Z,98802.77
2023-01-08T12:25:48.424Z,98802.70
2023-01-08T12:28:22.578Z,98799.64
2023-01-08T12:31:30.880Z,98799.34
2023-01-08T12:34:22.137Z,98796.30
2023-01-08T12:36:55.080Z,98796.15
2023-01-08T12:39:30.367Z,98793.42
2023-01-08T12:42:11.146Z,98795.30
2023-01-08T12:44:40.574Z,98797.14
2023-01-08T12:47:17.364Z,98792.23
2023-01-08T12:49:55.968Z,98792.30
2023-01-08T12:52:54.205Z,98795.28
2023-01-08T12:55:44.891Z,98789.56
2023-01-08T12:58:31.203Z,98789.94
2023-01-08T13:01:30.939Z,98786.20
2023-01-08T13:04:00.514Z,98784.41
2023-01-08T13:06:28.770Z,98780.94
2023-01-08T13:09:01.476Z,98782.23
2023-01-08T13:11:33.842Z,98780.44
2023-01-08T13:14:12.561Z,98779.30
2023-01-08T13:16:45.545Z,98786.46
2023-01-08T13:19:26.816Z,98787.00
2023-01-08T13:21:59.104Z,98784.16
2023-01-08T13:24:39.638Z,98785.55
2023-01-08T13:27:28.890Z,98782.08
2023-01-08T13:29:59.708Z,98782.94
2023-01-08T13:32:38.188Z,98788.40
2023-01-08T13:35:09.680Z,98788.70
2023-01-08T13:37:46.727Z,98787.48
2023-01-08T13:40:42.687Z,98788.89
2023-01-08T13:43:20.087Z,98783.48
2023-01-08T13:46:13.997Z,98786.39
2023-01-08T13:49:01.479Z,98784.52
2023-01-08T13:51:38.767Z,98782.23
2023-01-08T13:54:21.319Z,98781.13
2023-01-08T13:56:57.337Z,98788.36
2023-01-08T13:59:54.035Z,98789.17
2023-01-08T14:02:27.042Z,98786.52
2023-01-08T14:04:55.900Z,98785.74
2023-01-08T14:07:31.744Z,98789.39
2023-01-08T14:10:13.763Z,98788.98
2023-01-08T14:12:42.571Z,98789.52
2023-01-08T14:15:34.673Z,98783.86
2023-01-08T14:18:04.755Z,98781.23
2023-01-08T14:20:36.276Z,98786.20
2023-01-08T14:23:12.491Z,98790.66
2023-01-08T14:25:41.912Z,98784.35
2023-01-08T14:28:15.706Z,98784.74
2023-01-08T14:30:55.664Z,98779.90
2023-01-08T14:33:36.063Z,98777.26
2023-01-08T14:36:53.940Z,98775.77
2023-01-08T14:39:24.765Z,98779.10
2023-01-08T14:42:14.826Z,98781.34
2023-01-08T14:44:46.230Z,98778.60
2023-01-08T14:47:36.147Z,98779.19
2023-01-08T14:50:08.436Z,98779.32
2023-01-08T14:52:43.019Z,98777.54
2023-01-08T14:55:19.647Z,98779.11
2023-01-08T14:57:55.123Z,98783.16
2023-01-08T15:00:30.721Z,98781.35
2023-01-08T15:03:02.829Z,98780.73
2023-01-08T15:05:33.332Z,98786.55
2023-01-08T15:08:45.096Z,98788.15
2023-01-08T15:11:24.351Z,98789.77
2023-01-08T15:13:55.074Z,98787.26
2023-01-08T15:16:32.128Z,98788.87
2023-01-08T15:19:07.609Z,98787.95
2023-01-08T15:21:37.562Z,98788.12
2023-01-08T15:24:07.947Z,98786.44
2023-01-08T15:26:41.912Z,98786.74
2023-01-08T15:29:19.025Z,98788.48
2023-01-08T15:31:49.163Z,98788.85
2023-01-08T15:34:22.088Z,98788.77
2023-01-08T15:36:50.919Z,98791.08
2023-01-08T15:39:18.832Z,98790.43
2023-01-08T15:42:05.834Z,98788.66
2023-01-08T15:44:34.628Z,98786.73
2023-01-08T15:47:02.696Z,98787.44
2023-01-08T15:49:31.020Z,98789.77
2023-01-08T15:51:59.196Z,98790.68
2023-01-08T15:54:31.440Z,98792.67
2023-01-08T15:56:59.595Z,98792.52
2023-01-08T15:59:27.651Z,98794.86
2023-01-08T16:01:56.018Z,98798.32
2023-01-08T16:04:28.617Z,98797.83
2023-01-08T16:06:56.673Z,98800.74
2023-01-08T16:09:24.716Z,98799.35
2023-01-08T16:11:52.950Z,98801.50
2023-01-08T16:14:21.034Z,98800.20
2023-01-08T16:16:49.336Z,98799.91
2023-01-08T16:19:17.515Z,98799.29
2023-01-08T16:21:48.267Z,98802.36
2023-01-08T16:24:16.609Z,98801.24
2023-01-08T16:26:44.743Z,98809.32
2023-01-08T16:29:13.000Z,98811.55
2023-01-08T16:31:46.390Z,98807.17
2023-01-08T16:34:16.008Z,98807.55
2023-01-08T16:36:44.223Z,98814.95
2023-01-08T16:39:12.301Z,98818.85
2023-01-08T16:41:46.973Z,98815.45
2023-01-08T16:44:19.313Z,98813.92
2023-01-08T16:46:47.870Z,98812.43
2023-01-08T16:49:16.649Z,98813.02
2023-01-08T16:51:44.700Z,98812.39
2023-01-08T16:54:14.046Z,98816.81
2023-01-08T16:56:42.577Z,98820.75
2023-01-08T16:59:22.288Z,98825.57
2023-01-08T17:01:54.172Z,98825.55
2023-01-08T17:04:22.656Z,98827.89
2023-01-08T17:20:09.277Z,98833.94
2023-01-08T17:30:41.287Z,98840.66
2023-01-08T17:33:54.307Z,98847.68
2023-01-08T17:40:41.181Z,98851.05
2023-01-08T17:51:33.613Z,98858.30
2023-01-08T18:02:22.723Z,98860.20
2023-01-08T18:04:52.992Z,98859.93
2023-01-08T18:07:21.257Z,98861.95
2023-01-08T18:09:52.726Z,98858.46
2023-01-08T18:12:21.061Z,98854.85
2023-01-08T18:14:49.147Z,98854.36
2023-01-08T18:17:18.250Z,98857.28
2023-01-08T18:19:46.506Z,98855.89
2023-01-08T18:22:15.567Z,98854.16
2023-01-08T18:24:52.957Z,98857.21
2023-01-08T18:27:22.761Z,98859.08
2023-01-08T18:29:57.884Z,98857.80
2023-01-08T18:32:29.114Z,98858.91
2023-01-08T18:34:59.020Z,98859.04
2023-01-08T18:37:30.063Z,98866.73
2023-01-08T18:39:58.247Z,98866.94
2023-01-08T18:42:26.509Z,98868.02
2023-01-08T18:44:56.159Z,98865.33
2023-01-08T18:47:26.815Z,98866.00
2023-01-08T18:49:59.933Z,98866.95
2023-01-08T18:52:34.837Z,98867.95
2023-01-08T18:55:03.099Z,98869.38
2023-01-08T18:57:31.417Z,98866.31
2023-01-08T18:59:59.586Z,98871.17
2023-01-08T19:02:27.998Z,98871.27
2023-01-08T19:04:56.307Z,98871.64
2023-01-08T19:07:29.058Z,98872.19
2023-01-08T19:09:58.277Z,98875.55
2023-01-08T19:12:28.277Z,98875.36
2023-01-08T19:14:56.657Z,98878.10
2023-01-08T19:17:25.008Z,98880.70
2023-01-08T19:19:54.705Z,98878.67
2023-01-08T19:22:26.881Z,98877.50
2023-01-08T19:24:56.239Z,98876.55
2023-01-08T19:27:25.284Z,98876.45
2023-01-08T19:29:56.474Z,98879.27
2023-01-08T19:32:32.429Z,98878.16
2023-01-08T19:35:01.138Z,98878.48
2023-01-08T19:37:29.438Z,98883.05
2023-01-08T19:40:07.263Z,98880.89
2023-01-08T19:42:55.115Z,98881.05
2023-01-08T19:45:23.362Z,98884.87
2023-01-08T19:47:53.506Z,98888.77
2023-01-08T19:50:25.264Z,98887.64
2023-01-08T19:52:53.675Z,98886.27
2023-01-08T19:55:22.524Z,98884.86
2023-01-08T19:57:55.727Z,98888.14
2023-01-08T20:00:24.013Z,98895.77
2023-01-08T20:02:58.016Z,98897.03
2023-01-08T20:05:30.056Z,98894.64
2023-01-08T20:07:58.621Z,98895.44
2023-01-08T20:10:34.066Z,98893.27
2023-01-08T20:13:02.231Z,98892.63
2023-01-08T20:15:36.099Z,98891.13
2023-01-08T20:18:06.191Z,98888.92
2023-01-08T20:20:34.468Z,98885.27
2023-01-08T20:23:02.537Z,98884.33
2023-01-08T20:25:30.682Z,98884.08
2023-01-08T20:27:58.809Z,98881.59
2023-01-08T20:30:30.702Z,98880.06
2023-01-08T20:33:00.651Z,98878.55
2023-01-08T20:35:28.753Z,98877.15
2023-01-08T20:37:57.685Z,98873.41
2023-01-08T20:40:52.703Z,98868.34
2023-01-08T20:43:20.925Z,98869.48
2023-01-08T20:45:49.604Z,98865.95
2023-01-08T20:48:18.206Z,98864.80
2023-01-08T20:50:55.495Z,98865.50
2023-01-08T20:53:24.024Z,98865.34
2023-01-08T20:55:53.263Z,98862.45
2023-01-08T20:58:21.410Z,98862.56
2023-01-08T21:09:27.215Z,98863.50
2023-01-08T21:11:55.456Z,98861.30
2023-01-08T21:23:02.091Z,98861.16
2023-01-08T21:33:50.381Z,98852.84
2023-01-08T21:40:39.044Z,98849.98
2023-01-08T21:48:15.535Z,98845.65
2023-01-08T21:59:01.136Z,98839.55
2023-01-08T22:01:32.033Z,98840.30
2023-01-08T22:04:26.273Z,98839.00
2023-01-08T22:06:57.550Z,98831.05
2023-01-08T22:12:18.965Z,98830.42
2023-01-08T22:14:49.044Z,98830.09
2023-01-08T22:17:18.825Z,98833.15
2023-01-08T22:19:56.713Z,98828.96
2023-01-08T22:22:39.137Z,98827.29
2023-01-08T22:30:34.965Z,98826.40
2023-01-08T22:33:42.394Z,98826.79
2023-01-08T22:38:24.031Z,98820.92
2023-01-08T22:40:42.588Z,98827.13
2023-01-08T22:43:53.950Z,98825.91
2023-01-08T22:51:47.715Z,98812.00
2023-01-08T22:55:12.670Z,98807.81
2023-01-08T22:58:07.188Z,98806.80
2023-01-08T23:00:56.161Z,98802.02
2023-01-08T23:07:26.212Z,98801.28
2023-01-08T23:10:17.033Z,98798.50
2023-01-08T23:13:24.703Z,98798.79
2023-01-08T23:16:18.981Z,98794.67
2023-01-08T23:19:20.926Z,98792.38
2023-01-08T23:22:26.501Z,98783.02
2023-01-08T23:25:08.900Z,98780.97
2023-01-08T23:27:46.389Z,98782.40
2023-01-08T23:30:22.256Z,98781.45
2023-01-08T23:33:13.803Z,98778.95
2023-01-08T23:35:44.311Z,98773.52
2023-01-08T23:38:18.234Z,98774.98
2023-01-08T23:41:07.026Z,98778.38
2023-01-08T23:43:55.796Z,98769.55
2023-01-08T23:46:37.510Z,98767.94
2023-01-08T23:49:18.469Z,98760.52
2023-01-08T23:51:46.668Z,98760.19
2023-01-08T23:54:18.880Z,98762.14
2023-01-08T23:56:57.364Z,98757.61
2023-01-08T23:59:26.536Z,98753.30
